Nha Trang, Viet Nam

4:43 PM ICT on July 05, 2015 (GMT +0700)
Cam Ranh Bay | | Change Station
CLOSE
Current Station
Airport
Location: Cam Ranh Bay,
Elevation: 39 ft
Nearby Weather Stations

Elev 39 ft 12.00 °N, 109.22 °E | Updated 13 minutes ago

Scattered Clouds
Scattered Clouds
95 °F
Feels Like 104 °F
N
9
Wind Variable Wind from SW

Today
High -- | Low -- °F
--% Chance of Precip.
Yesterday
High -- | Low -- °F
Precip. -- in
5:22 AM 6:12 PM
Waning Gibbous, 86% visible
Pressure 29.59 in
Visibility 6.2 miles
Clouds Few 1700 ft
Scattered Clouds 5000 ft
Heat Index 104 °F
Dew Point 73 °F
Humidity 49%
Rainfall 0.00 in
Snow Depth Not available.
UV 1 out of 12
Pollen Not available.
Air Quality Not available.
Flu Activity Not available.
METAR VVCR 050930Z 22008KT 9999 FEW017 SCT050 35/23 Q1002 NOSIG

More Conditions Fewer Conditions

Pressure 29.59 in
Visibility 6.2 miles
Clouds Few 1700 ft
Scattered Clouds 5000 ft
Heat Index 104 °F
Dew Point 73 °F
Humidity 49%
Rainfall 0.00 in
Snow Depth Not available.
UV 1 out of 12
Pollen Not available.
Air Quality Not available.
Flu Activity Not available.
METAR VVCR 050930Z 22008KT 9999 FEW017 SCT050 35/23 Q1002 NOSIG

More Conditions Fewer Conditions

10-Day Weather Forecast

×

Almanac

Astronomy

Jul. 05, 2015 Rise Set
Actual Time
Civil Twilight
Nautical Twilight
Astronomical Twilight
Moon
Length of Visible Light
Length of Day
Tomorrow will be .
, % of the Moon is Illuminated

Today's Extremes

Country Highs Country Lows

Community

WunderPhotos

Upload Photos

1,835,218 photos uploaded!

WunderBlogs® & News

Nearby

Air Quality

  Air Quality AQ Index Pollutant
Not available.

Snow Depth

Station Depth Elevation

Earthquake Activity

City Distance Mag. Time & Date
Minimum magnitude displayed is 2.5.

Coastal Water Temperatures

Place Temperature

Stations

Nearby Weather Stations

Station Location Temp. Windchill Dew Point Humidity Wind Precip. Elev Updated Type